Time;durP1;ratioP1;P1;durP2;ratioP2;P2;SDS_P1;SDS_P2;PMS_P1;PMS_P2;Temp;Humidity;BMP_temperature;BMP_pressure;BME280_temperature;BME280_humidity;BME280_pressure;Samples;Min_cycle;Max_cycle;Signal;HPM_P1;HPM_P2
2022/02/27 00:00:44;;;;;;;34.27;9.73;;;;;;;11.90;61.80;103124.56;4916707;29;20583;-46
2022/02/27 00:03:10;;;;;;;33.10;9.88;;;;;;;11.85;61.94;103121.50;4910648;29;20041;-52
2022/02/27 00:05:36;;;;;;;25.03;8.37;;;;;;;11.77;62.78;103124.06;4921399;29;20064;-48
2022/02/27 00:08:02;;;;;;;33.65;10.52;;;;;;;12.23;59.94;103117.94;4921591;29;20049;-50
2022/02/27 00:10:28;;;;;;;32.47;8.65;;;;;;;11.65;62.82;103128.78;4889607;29;20089;-48
2022/02/27 00:12:53;;;;;;;24.07;9.53;;;;;;;11.69;63.46;103127.47;4915458;29;20060;-52
2022/02/27 00:15:19;;;;;;;30.73;9.68;;;;;;;11.64;63.47;103131.59;4902422;29;20041;-48
2022/02/27 00:17:45;;;;;;;23.83;9.10;;;;;;;11.54;63.96;103126.25;4914888;29;20052;-51
2022/02/27 00:20:11;;;;;;;35.95;9.63;;;;;;;11.54;64.63;103132.47;4905200;29;20037;-51
2022/02/27 00:22:38;;;;;;;;;;;;;;;11.50;64.02;103131.03;4905426;29;20060;-54
2022/02/27 00:25:04;;;;;;;25.07;7.90;;;;;;;11.41;65.01;103129.25;4913706;29;19963;-52
2022/02/27 00:27:31;;;;;;;29.45;9.05;;;;;;;11.47;64.44;103136.69;4913185;29;20036;-49
2022/02/27 00:29:56;;;;;;;30.98;8.20;;;;;;;11.48;64.65;103127.66;4907056;29;20049;-51
2022/02/27 00:32:22;;;;;;;28.97;8.53;;;;;;;11.40;64.78;103133.75;4901289;29;20040;-49
2022/02/27 00:34:48;;;;;;;27.58;8.25;;;;;;;11.32;64.21;103136.31;4901920;29;20040;-49
2022/02/27 00:37:14;;;;;;;32.73;9.03;;;;;;;11.39;64.88;103141.94;4893070;29;20134;-51
2022/02/27 00:39:39;;;;;;;22.90;7.53;;;;;;;11.46;64.50;103143.06;4909106;29;20045;-50
2022/02/27 00:42:05;;;;;;;;;;;;;;;11.59;63.34;103140.06;4917945;29;20196;-47
2022/02/27 00:44:32;;;;;;;24.80;7.85;;;;;;;11.66;63.00;103143.00;4904969;29;19919;-50
2022/02/27 00:46:57;;;;;;;31.17;8.20;;;;;;;11.59;63.42;103135.56;4898288;29;20048;-48
2022/02/27 00:49:23;;;;;;;21.30;7.60;;;;;;;11.45;64.34;103136.00;4906954;29;20028;-46
2022/02/27 00:51:50;;;;;;;25.80;7.65;;;;;;;11.42;64.53;103136.28;4911037;29;20033;-50
2022/02/27 00:54:16;;;;;;;29.17;7.40;;;;;;;11.27;65.32;103133.22;4909179;29;20037;-47
2022/02/27 00:56:41;;;;;;;24.63;8.07;;;;;;;11.07;66.69;103124.34;4912159;29;20040;-47
2022/02/27 00:59:07;;;;;;;21.33;7.80;;;;;;;11.15;66.67;103124.50;4911459;29;20036;-50
2022/02/27 01:01:33;;;;;;;24.73;7.93;;;;;;;11.30;67.26;103127.56;4911178;29;20068;-52
2022/02/27 01:03:59;;;;;;;23.02;6.93;;;;;;;11.88;63.20;103120.34;4893451;29;20049;-48
2022/02/27 01:06:25;;;;;;;24.33;7.20;;;;;;;11.23;65.29;103108.56;4900976;29;20039;-49
2022/02/27 01:08:51;;;;;;;27.08;8.23;;;;;;;11.07;67.22;103113.66;4908992;29;20045;-46
2022/02/27 01:11:17;;;;;;;23.25;7.20;;;;;;;11.09;66.23;103109.03;4898146;29;20036;-51
2022/02/27 01:13:42;;;;;;;34.07;8.43;;;;;;;11.13;66.26;103110.41;4895292;29;20047;-47
2022/02/27 01:16:08;;;;;;;23.20;7.93;;;;;;;11.10;66.75;103116.06;4892266;29;20059;-48
2022/02/27 01:18:34;;;;;;;28.13;8.07;;;;;;;11.09;66.70;103112.53;4910905;29;20037;-50
2022/02/27 01:21:00;;;;;;;28.77;8.27;;;;;;;11.22;64.95;103117.59;4891635;29;20035;-48
2022/02/27 01:23:26;;;;;;;25.50;8.07;;;;;;;11.31;66.25;103116.72;4910272;29;20108;-51
2022/02/27 01:25:52;;;;;;;23.08;8.30;;;;;;;11.71;64.10;103119.28;4914432;29;20032;-50
2022/02/27 01:28:17;;;;;;;29.60;8.77;;;;;;;11.05;66.01;103117.31;4903388;29;20041;-49
2022/02/27 01:30:43;;;;;;;27.73;7.80;;;;;;;10.98;67.50;103116.19;4915020;29;20109;-46
2022/02/27 01:33:09;;;;;;;36.40;9.20;;;;;;;11.77;61.96;103110.66;4908793;29;20275;-51
2022/02/27 01:35:36;;;;;;;37.80;9.10;;;;;;;12.01;59.38;103117.38;4909096;29;20044;-48
2022/02/27 01:38:02;;;;;;;31.55;9.10;;;;;;;11.45;63.50;103117.25;4898964;29;20044;-50
2022/02/27 01:40:28;;;;;;;29.75;10.32;;;;;;;10.93;67.34;103112.25;4903417;29;20109;-52
2022/02/27 01:42:54;;;;;;;31.58;8.63;;;;;;;10.92;67.84;103108.75;4913666;29;20581;-51
2022/02/27 01:45:21;;;;;;;24.42;10.05;;;;;;;10.88;67.86;103104.66;4910183;29;20106;-48
2022/02/27 01:47:47;;;;;;;27.80;9.30;;;;;;;11.03;67.02;103100.53;4907170;29;20041;-47
2022/02/27 01:50:13;;;;;;;29.17;9.53;;;;;;;11.03;66.55;103103.22;4915595;29;20048;-50
2022/02/27 01:52:38;;;;;;;29.80;10.75;;;;;;;11.00;67.17;103098.16;4888024;29;20040;-50
2022/02/27 01:55:07;;;;;;;28.40;10.50;;;;;;;11.10;66.53;103095.47;4908529;29;20080;-47
2022/02/27 01:57:32;;;;;;;26.48;9.07;;;;;;;10.97;67.31;103102.97;4892680;29;20041;-48
2022/02/27 01:59:59;;;;;;;29.92;10.75;;;;;;;10.93;67.23;103099.72;4883221;29;20067;-48
2022/02/27 02:02:24;;;;;;;34.33;9.75;;;;;;;10.84;68.35;103100.56;4895117;29;20052;-49
2022/02/27 02:04:51;;;;;;;32.35;9.95;;;;;;;10.86;68.38;103109.31;4886415;29;20048;-48
2022/02/27 02:07:17;;;;;;;28.97;8.90;;;;;;;10.73;69.62;103102.41;4888506;29;20046;-53
2022/02/27 02:09:42;;;;;;;28.23;8.70;;;;;;;10.83;68.82;103105.09;4900926;29;20041;-49
2022/02/27 02:12:12;;;;;;;22.83;8.40;;;;;;;10.65;70.61;103102.28;4899831;29;20037;-51
2022/02/27 02:14:37;;;;;;;23.05;8.30;;;;;;;10.67;71.52;103107.47;4884231;29;20040;-48
2022/02/27 02:17:03;;;;;;;28.77;7.55;;;;;;;10.72;70.84;103106.06;4908842;29;20034;-47
2022/02/27 02:19:29;;;;;;;24.95;6.97;;;;;;;10.62;72.01;103105.22;4890593;29;20041;-45
2022/02/27 02:22:05;;;;;;;22.25;7.88;;;;;;;10.71;71.79;103107.06;4882305;29;20044;-47
2022/02/27 02:24:32;;;;;;;23.70;8.32;;;;;;;10.72;71.16;103108.75;4895386;29;20061;-47
2022/02/27 02:26:58;;;;;;;29.70;9.07;;;;;;;10.65;70.99;103112.97;4886562;29;20045;-48
2022/02/27 02:29:24;;;;;;;30.40;8.93;;;;;;;10.68;71.25;103109.16;4906052;29;20109;-50
2022/02/27 02:31:53;;;;;;;31.00;9.30;;;;;;;10.61;71.59;103101.69;4893508;29;20101;-50
2022/02/27 02:34:21;;;;;;;31.00;9.13;;;;;;;10.57;71.47;103110.13;4881421;29;20065;-51
2022/02/27 02:36:48;;;;;;;29.05;9.43;;;;;;;10.67;70.84;103100.28;4894919;29;20100;-52
2022/02/27 02:39:18;;;;;;;28.73;9.38;;;;;;;10.59;71.96;103094.78;4904154;29;20079;-50
2022/02/27 02:41:44;;;;;;;21.70;8.75;;;;;;;10.53;72.64;103093.53;4888630;29;20049;-49
2022/02/27 02:44:17;;;;;;;26.90;7.85;;;;;;;10.40;74.33;103092.91;4895942;29;20041;-47
2022/02/27 02:46:44;;;;;;;38.35;10.32;;;;;;;10.50;73.11;103092.97;4885585;29;20047;-54
2022/02/27 02:49:12;;;;;;;26.13;8.23;;;;;;;10.53;73.33;103082.84;4889079;29;20062;-50
2022/02/27 02:51:57;;;;;;;20.40;8.27;;;;;;;10.47;73.63;103084.22;4888600;29;20029;-49
2022/02/27 02:54:23;;;;;;;30.13;9.20;;;;;;;10.43;74.06;103077.47;4886347;29;20409;-45
2022/02/27 02:56:50;;;;;;;24.48;8.82;;;;;;;10.54;73.21;103084.53;4914441;29;20048;-47
2022/02/27 02:59:16;;;;;;;30.45;9.77;;;;;;;10.43;73.31;103072.13;4909191;29;20071;-46
2022/02/27 03:01:42;;;;;;;28.35;8.93;;;;;;;10.42;73.67;103081.13;4911350;29;20037;-47
2022/02/27 03:04:07;;;;;;;29.83;8.87;;;;;;;10.40;73.33;103077.75;4918324;29;20151;-48
2022/02/27 03:06:33;;;;;;;25.20;7.90;;;;;;;10.41;72.69;103078.59;4906775;29;20044;-47
2022/02/27 03:08:59;;;;;;;26.13;9.00;;;;;;;10.40;72.82;103074.19;4916912;29;20284;-47
2022/02/27 03:11:25;;;;;;;27.05;8.25;;;;;;;10.33;74.28;103077.44;4912788;29;20036;-47
2022/02/27 03:13:51;;;;;;;25.85;9.13;;;;;;;10.29;74.52;103070.66;4910099;29;20100;-46
2022/02/27 03:16:18;;;;;;;15.57;7.20;;;;;;;10.22;75.76;103072.19;4919008;29;20036;-51
2022/02/27 03:18:43;;;;;;;20.17;7.70;;;;;;;10.25;75.29;103073.75;4907207;29;20338;-49
2022/02/27 03:21:09;;;;;;;24.67;7.80;;;;;;;10.19;75.61;103064.44;4915391;29;20048;-47
2022/02/27 03:23:36;;;;;;;19.90;8.35;;;;;;;10.16;76.01;103062.06;4913978;29;20080;-47
2022/02/27 03:26:02;;;;;;;29.52;7.78;;;;;;;10.19;75.75;103059.09;4908439;29;20047;-47
2022/02/27 03:28:27;;;;;;;22.10;7.75;;;;;;;10.19;75.42;103057.28;4918952;29;20044;-48
2022/02/27 03:30:53;;;;;;;23.40;8.17;;;;;;;10.14;75.93;103072.03;4908460;29;20128;-48
2022/02/27 03:33:19;;;;;;;26.20;7.90;;;;;;;10.13;76.40;103054.31;4913765;29;20060;-48
2022/02/27 03:35:45;;;;;;;33.95;10.25;;;;;;;10.12;76.47;103047.28;4903192;29;20294;-47
2022/02/27 03:38:12;;;;;;;28.67;8.40;;;;;;;10.07;76.81;103039.66;4918087;29;20044;-51
2022/02/27 03:40:38;;;;;;;26.30;8.38;;;;;;;10.17;75.65;103048.56;4906124;29;20051;-50
2022/02/27 03:43:03;;;;;;;22.10;9.07;;;;;;;10.10;76.25;103050.06;4915898;29;20504;-46
2022/02/27 03:45:29;;;;;;;27.47;7.97;;;;;;;10.02;76.68;103050.75;4903178;29;20284;-53
2022/02/27 03:47:54;;;;;;;25.05;8.60;;;;;;;10.02;76.92;103052.59;4899497;29;20367;-50
2022/02/27 03:50:21;;;;;;;31.90;9.33;;;;;;;10.04;76.85;103037.25;4906251;29;20041;-50
2022/02/27 03:52:47;;;;;;;19.58;8.75;;;;;;;10.03;77.23;103032.91;4917957;29;20268;-47
2022/02/27 03:55:14;;;;;;;21.27;7.70;;;;;;;9.97;77.19;103028.09;4910047;29;20124;-49
2022/02/27 03:57:41;;;;;;;25.65;8.48;;;;;;;10.03;76.95;103035.56;4911009;29;20048;-48
2022/02/27 04:00:10;;;;;;;22.15;9.38;;;;;;;9.99;78.13;103034.16;4917200;29;20037;-49
2022/02/27 04:02:39;;;;;;;23.90;8.95;;;;;;;10.01;78.52;103045.56;4905895;29;20040;-47
2022/02/27 04:05:05;;;;;;;20.05;8.93;;;;;;;9.93;78.62;103046.25;4915442;29;20056;-49
2022/02/27 04:07:31;;;;;;;20.65;6.05;;;;;;;10.00;78.33;103044.69;4912403;29;20045;-46
2022/02/27 04:09:56;;;;;;;23.60;8.00;;;;;;;10.03;77.73;103039.09;4908230;29;20065;-51
2022/02/27 04:12:22;;;;;;;16.43;6.73;;;;;;;9.97;77.58;103039.63;4917802;29;20112;-52
2022/02/27 04:14:47;;;;;;;19.23;8.60;;;;;;;10.00;77.12;103034.00;4906757;29;20500;-48
2022/02/27 04:17:13;;;;;;;20.10;7.27;;;;;;;9.99;77.32;103036.84;4914139;29;20052;-48
2022/02/27 04:19:38;;;;;;;24.27;7.87;;;;;;;9.85;77.40;103036.22;4912928;29;20042;-46
2022/02/27 04:22:04;;;;;;;27.80;7.87;;;;;;;9.94;76.92;103039.09;4907594;29;20096;-52
2022/02/27 04:24:29;;;;;;;18.43;7.90;;;;;;;9.96;75.75;103037.13;4918029;29;20294;-49
2022/02/27 04:26:55;;;;;;;21.53;7.40;;;;;;;9.87;77.04;103042.28;4907439;29;20040;-48
2022/02/27 04:29:20;;;;;;;15.90;6.30;;;;;;;9.96;75.92;103031.78;4913138;29;20056;-50
2022/02/27 04:31:46;;;;;;;30.63;6.80;;;;;;;9.84;76.91;103031.88;4913825;29;20342;-46
2022/02/27 04:34:11;;;;;;;26.97;7.47;;;;;;;9.72;77.34;103035.63;4906345;29;20092;-49
2022/02/27 04:36:37;;;;;;;18.80;6.53;;;;;;;9.84;76.09;103045.22;4917607;29;20036;-50
2022/02/27 04:39:04;;;;;;;17.27;6.17;;;;;;;9.96;74.87;103043.28;4907946;29;20044;-49
2022/02/27 04:41:29;;;;;;;25.65;6.90;;;;;;;9.90;75.36;103046.53;4911564;29;20070;-47
2022/02/27 04:43:55;;;;;;;21.73;7.13;;;;;;;9.96;74.95;103045.13;4914732;29;20040;-48
2022/02/27 04:46:21;;;;;;;21.17;6.57;;;;;;;9.93;74.34;103037.38;4905240;29;20288;-47
2022/02/27 04:48:46;;;;;;;19.50;6.57;;;;;;;9.87;75.41;103042.28;4917281;29;20274;-51
2022/02/27 04:51:12;;;;;;;16.38;6.40;;;;;;;9.80;75.87;103043.81;4908883;29;20041;-50
2022/02/27 04:53:38;;;;;;;20.75;8.27;;;;;;;9.84;76.06;103037.22;4910381;29;20049;-50
2022/02/27 04:56:03;;;;;;;21.20;6.47;;;;;;;9.81;75.91;103034.81;4915020;29;20084;-50
2022/02/27 04:58:30;;;;;;;17.15;6.50;;;;;;;9.73;77.04;103034.66;4904737;29;20077;-48
2022/02/27 05:00:56;;;;;;;21.95;7.30;;;;;;;9.66;77.95;103030.81;4915951;29;20100;-50
2022/02/27 05:03:22;;;;;;;17.15;8.10;;;;;;;9.73;77.22;103034.66;4909812;29;20047;-49
2022/02/27 05:05:47;;;;;;;28.80;6.80;;;;;;;9.69;77.31;103030.56;4909015;29;20069;-47
2022/02/27 05:08:13;;;;;;;23.02;7.22;;;;;;;9.77;76.83;103033.41;4916488;29;20037;-46
2022/02/27 05:10:39;;;;;;;17.75;7.45;;;;;;;9.74;77.56;103023.81;4904625;29;20073;-48
2022/02/27 05:13:05;;;;;;;20.83;7.40;;;;;;;9.44;80.69;103024.69;4914447;29;20048;-48
2022/02/27 05:15:30;;;;;;;16.20;6.83;;;;;;;9.53;80.89;103029.25;4910756;29;20041;-46
2022/02/27 05:17:56;;;;;;;21.83;7.60;;;;;;;9.58;80.69;103021.66;4907985;29;20324;-51
2022/02/27 05:20:22;;;;;;;22.03;7.70;;;;;;;9.98;76.21;103019.09;4917028;29;20047;-48
2022/02/27 05:22:48;;;;;;;24.40;6.68;;;;;;;9.79;78.07;103015.41;4901262;29;20044;-46
2022/02/27 05:25:18;;;;;;;26.45;7.55;;;;;;;9.86;77.10;103013.88;4908325;29;20039;-46
2022/02/27 05:27:49;;;;;;;18.65;7.53;;;;;;;9.67;79.52;103016.47;4909153;29;20048;-47
2022/02/27 05:30:15;;;;;;;21.80;7.88;;;;;;;9.68;79.15;103007.47;4916061;29;20044;-47
2022/02/27 05:32:41;;;;;;;46.17;8.73;;;;;;;9.65;79.13;103018.44;4904537;29;20099;-48
2022/02/27 05:35:07;;;;;;;19.90;6.93;;;;;;;9.57;79.62;103014.63;4919811;29;20040;-48
2022/02/27 05:37:33;;;;;;;24.77;8.05;;;;;;;9.61;79.31;103015.22;4919986;29;20037;-52
2022/02/27 05:39:59;;;;;;;21.33;7.50;;;;;;;9.52;79.47;103019.53;4907115;29;20067;-49
2022/02/27 05:42:24;;;;;;;31.00;7.53;;;;;;;9.73;77.71;103023.97;4916683;29;20037;-51
2022/02/27 05:44:50;;;;;;;17.02;7.03;;;;;;;9.48;79.31;103023.47;4904649;29;20068;-50
2022/02/27 05:47:16;;;;;;;21.38;7.53;;;;;;;9.65;77.91;103021.97;4912572;29;20154;-48
2022/02/27 05:49:42;;;;;;;22.67;7.43;;;;;;;9.63;78.40;103025.75;4911520;29;20104;-50
2022/02/27 05:52:08;;;;;;;18.03;7.43;;;;;;;9.64;77.60;103030.97;4905848;29;20044;-49
2022/02/27 05:54:33;;;;;;;18.63;7.43;;;;;;;9.54;78.38;103028.25;4915946;29;20303;-49
2022/02/27 05:56:59;;;;;;;25.17;6.93;;;;;;;9.64;78.80;103028.31;4905655;29;20047;-47
2022/02/27 05:59:25;;;;;;;24.40;8.30;;;;;;;9.74;77.08;103028.34;4911445;29;20032;-49
2022/02/27 06:01:51;;;;;;;21.52;7.85;;;;;;;9.64;77.93;103028.31;4912396;29;20346;-51
2022/02/27 06:04:16;;;;;;;19.65;7.75;;;;;;;9.44;80.71;103032.69;4904554;29;20086;-51
2022/02/27 06:06:42;;;;;;;20.70;7.50;;;;;;;9.59;78.14;103034.03;4903287;29;20044;-50
2022/02/27 06:09:08;;;;;;;22.40;7.90;;;;;;;9.63;78.30;103042.63;4919472;29;20047;-48
2022/02/27 06:11:33;;;;;;;22.30;7.00;;;;;;;9.56;79.26;103041.47;4910264;29;20037;-49
2022/02/27 06:13:59;;;;;;;21.23;6.97;;;;;;;9.43;79.71;103041.69;4896815;29;20036;-50
2022/02/27 06:16:24;;;;;;;19.57;6.97;;;;;;;9.56;78.53;103045.00;4903731;29;20048;-47
2022/02/27 06:18:50;;;;;;;24.47;7.10;;;;;;;9.62;77.38;103040.94;4915579;29;20044;-48
2022/02/27 06:21:15;;;;;;;16.80;7.43;;;;;;;9.33;80.30;103041.66;4907179;29;20071;-52
2022/02/27 06:23:40;;;;;;;18.20;6.93;;;;;;;9.35;80.11;103041.53;4908938;29;20100;-51
2022/02/27 06:26:06;;;;;;;17.05;6.95;;;;;;;9.08;84.68;103048.25;4913683;29;20117;-51
2022/02/27 06:28:32;;;;;;;12.43;7.30;;;;;;;9.18;83.30;103049.16;4903424;29;20040;-49
2022/02/27 06:30:57;;;;;;;21.40;7.77;;;;;;;9.18;84.03;103038.47;4914583;29;20361;-46
2022/02/27 06:33:23;;;;;;;19.13;7.77;;;;;;;9.17;83.31;103045.66;4907628;29;20037;-52
2022/02/27 06:35:48;;;;;;;15.90;6.43;;;;;;;9.17;83.42;103040.31;4907809;29;20048;-48
2022/02/27 06:38:14;;;;;;;19.27;7.50;;;;;;;9.21;82.98;103051.56;4914419;29;20307;-47
2022/02/27 06:40:40;;;;;;;18.85;7.93;;;;;;;9.28;83.25;103051.88;4903408;29;20045;-49
2022/02/27 06:43:07;;;;;;;16.43;8.17;;;;;;;9.30;82.57;103048.13;4913524;29;20041;-50
2022/02/27 06:45:33;;;;;;;21.80;8.63;;;;;;;9.25;83.19;103052.16;4909021;29;20044;-51
2022/02/27 06:47:59;;;;;;;19.17;7.20;;;;;;;9.17;83.88;103058.16;4906271;29;20069;-47
2022/02/27 06:50:25;;;;;;;17.37;7.57;;;;;;;9.26;83.83;103057.38;4915511;29;20052;-51
2022/02/27 06:52:51;;;;;;;18.10;8.35;;;;;;;9.35;82.77;103049.53;4903699;29;20060;-52
2022/02/27 06:55:17;;;;;;;22.30;8.43;;;;;;;9.36;82.48;103048.56;4912015;29;20053;-51
2022/02/27 06:57:43;;;;;;;24.33;8.23;;;;;;;9.31;83.23;103052.47;4910443;29;20040;-48
2022/02/27 07:00:10;;;;;;;19.25;8.43;;;;;;;9.42;81.91;103056.88;4905095;29;20100;-53
2022/02/27 07:02:35;;;;;;;23.92;8.52;;;;;;;9.38;82.97;103066.16;4915576;29;20036;-51
2022/02/27 07:05:01;;;;;;;29.80;9.30;;;;;;;9.50;81.48;103058.91;4888288;29;20049;-53
2022/02/27 07:07:27;;;;;;;22.15;8.57;;;;;;;9.40;81.83;103055.31;4910594;29;20041;-50
2022/02/27 07:09:55;;;;;;;16.83;7.30;;;;;;;9.38;81.77;103054.59;4911413;29;20041;-50
2022/02/27 07:12:20;;;;;;;20.15;8.52;;;;;;;9.46;81.15;103057.47;4903681;29;20074;-49
2022/02/27 07:14:46;;;;;;;23.08;7.97;;;;;;;9.54;81.38;103054.97;4899099;29;20033;-47
2022/02/27 07:17:11;;;;;;;20.75;8.57;;;;;;;9.50;80.98;103061.56;4905966;29;20040;-51
2022/02/27 07:19:38;;;;;;;19.73;7.73;;;;;;;9.59;79.82;103060.75;4909410;29;20100;-51
2022/02/27 07:22:04;;;;;;;;;;;;;;;9.67;79.25;103060.09;4912976;29;20048;-47
2022/02/27 07:24:30;;;;;;;15.27;6.40;;;;;;;9.66;78.46;103062.88;4903580;29;20265;-49
2022/02/27 07:26:56;;;;;;;25.25;8.23;;;;;;;9.72;77.48;103063.19;4914670;29;20068;-47
2022/02/27 07:29:21;;;;;;;24.58;7.18;;;;;;;9.82;75.75;103057.88;4907077;29;20104;-51
2022/02/27 07:31:47;;;;;;;12.77;6.40;;;;;;;9.87;74.71;103061.00;4908247;29;20101;-53
2022/02/27 07:34:12;;;;;;;19.20;6.60;;;;;;;9.95;73.62;103062.16;4913418;29;20044;-51
2022/02/27 07:36:39;;;;;;;18.95;6.20;;;;;;;10.01;72.17;103056.25;4902498;29;20041;-51
2022/02/27 07:39:04;;;;;;;16.73;6.67;;;;;;;10.03;71.71;103059.63;4913226;29;20040;-47
2022/02/27 07:41:30;;;;;;;15.63;6.47;;;;;;;10.08;70.94;103062.72;4891213;29;20048;-49
2022/02/27 07:43:55;;;;;;;25.17;6.47;;;;;;;10.17;69.63;103058.38;4906786;29;20064;-49
2022/02/27 07:46:21;;;;;;;21.30;6.20;;;;;;;10.15;69.97;103071.91;4917348;29;20032;-50
2022/02/27 07:48:48;;;;;;;15.93;5.77;;;;;;;10.53;67.67;103065.91;4906067;29;20043;-54
2022/02/27 07:51:14;;;;;;;14.88;5.38;;;;;;;10.43;66.17;103060.56;4915553;29;20102;-53
2022/02/27 07:53:39;;;;;;;19.23;5.47;;;;;;;10.70;65.13;103054.50;4912455;29;20044;-47
2022/02/27 07:56:04;;;;;;;24.47;6.23;;;;;;;10.90;63.78;103063.38;4908815;29;20064;-49
2022/02/27 07:58:30;;;;;;;13.13;4.80;;;;;;;10.57;64.96;103052.13;4918483;29;20181;-51
2022/02/27 08:00:55;;;;;;;12.50;4.80;;;;;;;10.75;63.97;103049.56;4906939;29;20036;-50
2022/02/27 08:03:20;;;;;;;13.03;5.10;;;;;;;10.76;63.66;103050.44;4914521;29;20066;-51
2022/02/27 08:05:47;;;;;;;19.43;5.47;;;;;;;10.90;62.79;103051.81;4912891;29;20101;-47
2022/02/27 08:08:13;;;;;;;18.05;5.43;;;;;;;10.97;62.04;103063.66;4921561;29;20036;-50
2022/02/27 08:10:38;;;;;;;16.07;4.80;;;;;;;11.05;61.57;103069.13;4905607;29;20044;-48
2022/02/27 08:13:05;;;;;;;11.30;3.80;;;;;;;11.05;61.03;103068.28;4916624;29;20276;-48
2022/02/27 08:15:31;;;;;;;21.55;5.13;;;;;;;11.08;61.06;103072.53;4910819;29;20113;-50
2022/02/27 08:17:57;;;;;;;12.83;4.73;;;;;;;11.44;59.46;103070.88;4909675;29;20044;-49
2022/02/27 08:20:22;;;;;;;15.43;4.87;;;;;;;11.56;58.63;103074.22;4917586;29;20037;-49
2022/02/27 08:22:49;;;;;;;13.85;5.22;;;;;;;11.61;57.91;103065.72;4905535;29;20039;-52
2022/02/27 08:25:15;;;;;;;10.27;5.10;;;;;;;11.69;57.19;103064.97;4914604;29;20060;-48
2022/02/27 08:27:42;;;;;;;13.20;4.88;;;;;;;11.74;57.37;103073.41;4911979;29;20050;-47
2022/02/27 08:30:09;;;;;;;20.67;4.70;;;;;;;11.91;56.87;103072.63;4908084;29;20053;-51
2022/02/27 08:32:34;;;;;;;;;;;;;;;12.15;55.63;103076.59;4919155;29;20040;-51
2022/02/27 08:35:00;;;;;;;11.73;4.70;;;;;;;12.11;55.35;103072.53;4916662;29;19915;-49
2022/02/27 08:37:26;;;;;;;16.23;4.72;;;;;;;12.38;54.57;103086.06;4909444;29;20036;-48
2022/02/27 08:39:52;;;;;;;12.20;5.38;;;;;;;12.83;53.11;103086.97;4910013;29;20055;-51
2022/02/27 08:42:17;;;;;;;8.13;3.93;;;;;;;13.00;51.80;103094.16;4916393;29;20107;-52
2022/02/27 08:44:43;;;;;;;18.83;4.23;;;;;;;13.20;50.79;103096.66;4905006;29;20040;-49
2022/02/27 08:47:08;;;;;;;13.40;4.03;;;;;;;13.77;49.29;103095.31;4915377;29;20290;-48
2022/02/27 08:49:34;;;;;;;12.07;3.77;;;;;;;13.94;47.55;103087.31;4910398;29;20063;-52
2022/02/27 08:52:01;;;;;;;10.15;3.88;;;;;;;14.66;46.28;103088.66;4908112;29;20041;-54
2022/02/27 08:54:27;;;;;;;19.08;4.03;;;;;;;15.27;44.09;103097.22;4916705;29;20479;-52
2022/02/27 08:56:53;;;;;;;8.90;4.05;;;;;;;15.99;42.55;103097.34;4904009;29;20056;-51
2022/02/27 08:59:19;;;;;;;13.15;3.70;;;;;;;15.89;41.85;103106.47;4913881;29;20060;-54
2022/02/27 09:01:44;;;;;;;12.70;3.70;;;;;;;16.10;41.09;103101.50;4911298;29;20096;-49
2022/02/27 09:04:09;;;;;;;8.70;3.30;;;;;;;17.13;39.36;103106.66;4907068;29;20057;-48
2022/02/27 09:06:35;;;;;;;9.67;3.43;;;;;;;17.04;38.18;103108.59;4916858;29;20072;-48
2022/02/27 09:09:01;;;;;;;14.02;4.40;;;;;;;17.57;37.14;103103.13;4905342;29;20040;-50
2022/02/27 09:11:27;;;;;;;15.23;4.40;;;;;;;17.91;36.34;103095.44;4911613;29;20078;-48
2022/02/27 09:13:53;;;;;;;12.30;4.03;;;;;;;17.98;34.90;103093.66;4912302;29;20036;-51
2022/02/27 09:16:19;;;;;;;7.65;3.63;;;;;;;18.55;33.91;103095.72;4905854;29;20033;-49
2022/02/27 09:18:45;;;;;;;10.07;3.28;;;;;;;19.24;32.57;103098.78;4916600;29;20051;-51
2022/02/27 09:21:10;;;;;;;12.13;4.10;;;;;;;18.63;32.53;103101.88;4906655;29;20032;-50
2022/02/27 09:23:36;;;;;;;8.43;3.77;;;;;;;18.93;32.51;103092.72;4911309;29;20287;-53
2022/02/27 09:26:03;;;;;;;20.33;4.40;;;;;;;19.42;31.88;103099.13;4912934;29;20051;-48
2022/02/27 09:28:30;;;;;;;9.20;3.53;;;;;;;19.28;31.35;103098.19;4904107;29;20069;-49
2022/02/27 09:30:55;;;;;;;10.30;3.88;;;;;;;19.92;30.42;103088.09;4904440;29;20276;-48
2022/02/27 09:33:21;;;;;;;9.52;4.00;;;;;;;20.31;30.00;103095.75;4913154;29;20089;-53
2022/02/27 09:35:47;;;;;;;10.05;3.88;;;;;;;20.01;29.87;103106.91;4911128;29;20038;-47
2022/02/27 09:38:13;;;;;;;8.82;3.35;;;;;;;20.46;30.24;103099.09;4906466;29;20096;-48
2022/02/27 09:40:39;;;;;;;14.10;4.30;;;;;;;20.14;30.07;103095.25;4915811;29;20047;-55
2022/02/27 09:43:04;;;;;;;9.40;3.53;;;;;;;21.09;28.97;103099.72;4904835;29;20040;-48
2022/02/27 09:45:31;;;;;;;8.30;3.95;;;;;;;20.56;29.81;103100.56;4911817;29;20040;-49
2022/02/27 09:47:57;;;;;;;10.18;3.97;;;;;;;20.65;29.84;103093.88;4911551;29;20202;-52
2022/02/27 09:50:25;;;;;;;15.93;4.77;;;;;;;21.27;29.11;103093.66;4904626;29;20045;-49
2022/02/27 09:52:52;;;;;;;17.10;3.97;;;;;;;21.79;28.19;103098.31;4915885;29;20313;-51
2022/02/27 09:55:18;;;;;;;10.53;3.77;;;;;;;21.73;28.33;103097.28;4906161;29;20279;-48
2022/02/27 09:57:49;;;;;;;11.13;3.58;;;;;;;21.89;28.03;103089.69;4919106;29;20275;-53
2022/02/27 10:00:17;;;;;;;11.93;3.83;;;;;;;22.30;28.10;103082.09;4905576;29;20041;-52
2022/02/27 10:03:30;;;;;;;11.97;3.50;;;;;;;22.63;27.18;103087.31;4917286;29;20100;-52
2022/02/27 10:06:08;;;;;;;15.70;3.73;;;;;;;22.57;26.84;103079.19;4851056;29;20064;-51
2022/02/27 10:08:40;;;;;;;9.10;4.33;;;;;;;22.59;27.34;103074.34;4858385;29;20083;-55
2022/02/27 10:11:06;;;;;;;8.53;3.73;;;;;;;22.80;27.14;103066.81;4884971;29;20072;-52
2022/02/27 10:13:42;;;;;;;;;;;;;;;23.32;26.15;103070.09;4911550;29;20101;-50
2022/02/27 10:16:18;;;;;;;12.13;4.13;;;;;;;23.83;25.45;103074.50;4912122;29;19954;-50
2022/02/27 10:18:59;;;;;;;10.87;4.00;;;;;;;23.63;25.78;103070.97;4902906;29;20100;-50
2022/02/27 10:21:25;;;;;;;10.73;4.17;;;;;;;22.73;26.03;103067.72;4912344;29;20290;-50
2022/02/27 10:24:11;;;;;;;;;;;;;;;22.97;25.72;103070.66;4910788;29;20047;-53
2022/02/27 10:26:39;;;;;;;12.27;4.03;;;;;;;21.65;26.40;103064.88;4903252;29;19983;-52
2022/02/27 10:29:16;;;;;;;15.67;3.37;;;;;;;21.52;27.04;103063.00;4914544;29;20057;-49
2022/02/27 10:32:02;;;;;;;9.57;3.47;;;;;;;23.06;26.30;103060.28;4909184;29;20064;-50
2022/02/27 10:34:30;;;;;;;11.03;4.03;;;;;;;23.99;25.32;103049.28;4903714;29;20061;-53
2022/02/27 10:36:59;;;;;;;8.00;3.97;;;;;;;23.50;25.24;103057.50;4918449;29;20095;-50
2022/02/27 10:39:30;;;;;;;12.10;3.90;;;;;;;22.73;25.75;103050.56;4912094;29;20041;-50
2022/02/27 10:42:18;;;;;;;8.20;3.40;;;;;;;22.94;25.22;103065.66;4910667;29;20495;-49
2022/02/27 10:44:58;;;;;;;7.67;3.83;;;;;;;24.26;24.49;103056.28;4916884;29;20064;-53
2022/02/27 10:47:29;;;;;;;10.93;4.20;;;;;;;22.38;25.12;103065.50;4906594;29;20032;-55
2022/02/27 10:49:57;;;;;;;8.80;3.80;;;;;;;23.18;26.55;103047.56;4916435;29;20041;-54
2022/02/27 10:52:25;;;;;;;9.47;4.00;;;;;;;24.14;24.24;103058.97;4904297;29;20047;-53
2022/02/27 10:54:54;;;;;;;9.07;4.00;;;;;;;22.60;25.20;103073.28;4914958;29;20059;-52
2022/02/27 10:57:34;;;;;;;6.87;3.90;;;;;;;22.61;24.58;103061.34;4905661;29;20056;-53
2022/02/27 11:00:29;;;;;;;10.43;3.97;;;;;;;23.90;24.93;103059.69;4907368;29;20065;-51
2022/02/27 11:02:57;;;;;;;9.63;3.70;;;;;;;23.80;23.34;103058.59;4917455;29;20048;-52
2022/02/27 11:05:24;;;;;;;10.40;3.50;;;;;;;23.59;23.98;103042.47;4912172;29;20057;-51
2022/02/27 11:07:58;;;;;;;10.17;3.80;;;;;;;22.90;24.82;103031.69;4909675;29;20033;-51
2022/02/27 11:10:29;;;;;;;11.00;4.00;;;;;;;21.25;27.20;103035.88;4914707;29;20060;-54
2022/02/27 11:12:58;;;;;;;5.97;3.97;;;;;;;22.85;24.65;103032.38;4915688;29;20092;-51
2022/02/27 11:15:23;;;;;;;8.53;3.67;;;;;;;21.90;25.15;103025.97;4905988;29;20043;-48
2022/02/27 11:17:50;;;;;;;9.27;3.88;;;;;;;22.04;25.96;103021.28;4891436;29;20096;-49
2022/02/27 11:20:19;;;;;;;8.98;3.75;;;;;;;23.61;24.27;103023.94;4913862;29;20040;-54